Kap Morris Jesup

KL  EN  DA
ASIAQ
Weather Now GREENLAND SURVEY
Updated [WGT/WGST] Temperature [°C] Wind [m/s] Air pressure [hPa] Relative humidity [%] Precipitation [mm]
Present Wind chill Speed Max
18.04 00:00-19,4-30,66,7 ⇒8,8100977n/a
17.04 23:00-19,0-30,57,2 ⇒8,8100975n/a
17.04 22:00-17,9-29,17,2 ⇒8,8100874n/a
17.04 21:00-16,4-27,17,2 ⇒8,8100871n/a
17.04 20:00n/an/an/an/an/an/an/a
17.04 19:00-15,1-26,18,2 ⇒10,3100970n/a
17.04 18:00-14,5-22,24,1 ⇒5,1100965n/a
17.04 17:00-11,5-21,48,2 ⇒10,3100959n/a
17.04 16:00-13,8-23,87,2 ⇒8,8100966n/a
17.04 15:00-15,3-26,38,2 ⇒10,3100972n/a
17.04 14:00-14,9-27,110,8 ⇒12,9100968n/a
17.04 13:00-12,9-19,13,1 ⇒4,1100956n/a
17.04 12:00-11,6-18,64,1 ⇐5,7101047n/a
17.04 11:00-13,8-22,35,1 ⇐7,2101156n/a
17.04 10:00-15,3-21,32,6 ⇐3,1101260n/a
17.04 09:00-14,8-20,72,6 ⇖3,6101466n/a
17.04 08:00-17,1-21,31,5 ⇖2,6101568n/a
17.04 07:00-20,3-27,22,6 ⇖3,1101770n/a
17.04 06:00-19,60,01,0 ⇖2,1101872n/a
17.04 05:00-18,2-22,51,5 ⇖2,6101974n/a
17.04 04:00-21,6-28,82,6 ⇐3,6102076n/a
17.04 03:00-19,9-26,82,6 ⇖3,6102279n/a
17.04 02:00-19,5-26,32,6 ⇐3,1102376n/a
17.04 01:00-20,2-28,63,6 ⇐4,1102576n/a
17.04 00:00-19,2-26,73,1 ⇐3,6102674n/a
Position: (83.6561111111,-33.3738888888)

[Back]